createdAt,value
2022-11-23T00:00:46.882Z,7.37
2022-11-23T00:03:16.902Z,7.32
2022-11-23T00:05:46.317Z,7.42
2022-11-23T00:08:18.400Z,7.44
2022-11-23T00:10:47.913Z,7.44
2022-11-23T00:13:17.282Z,7.41
2022-11-23T00:15:46.623Z,7.53
2022-11-23T00:18:17.011Z,7.57
2022-11-23T00:20:46.386Z,7.61
2022-11-23T00:23:18.310Z,7.65
2022-11-23T00:25:48.303Z,7.63
2022-11-23T00:28:17.642Z,7.64
2022-11-23T00:30:51.431Z,7.69
2022-11-23T00:33:20.799Z,7.70
2022-11-23T00:35:50.119Z,7.73
2022-11-23T00:38:22.074Z,7.69
2022-11-23T00:40:52.190Z,7.76
2022-11-23T00:43:21.602Z,7.77
2022-11-23T00:45:51.122Z,7.79
2022-11-23T00:48:20.467Z,7.76
2022-11-23T00:50:49.838Z,7.80
2022-11-23T00:53:21.827Z,7.89
2022-11-23T00:55:53.739Z,7.87
2022-11-23T00:58:23.175Z,7.90
2022-11-23T01:00:52.978Z,7.89
2022-11-23T01:03:22.300Z,7.82
2022-11-23T01:05:51.606Z,7.86
2022-11-23T01:08:23.527Z,7.90
2022-11-23T01:10:54.295Z,7.92
2022-11-23T01:13:23.711Z,7.92
2022-11-23T01:15:53.170Z,7.95
2022-11-23T01:18:22.504Z,7.96
2022-11-23T01:20:51.984Z,7.85
2022-11-23T01:23:23.939Z,7.85
2022-11-23T01:25:56.979Z,7.89
2022-11-23T01:28:26.669Z,7.92
2022-11-23T01:30:57.222Z,7.84
2022-11-23T01:33:26.667Z,7.82
2022-11-23T01:35:55.970Z,7.84
2022-11-23T01:38:27.965Z,7.88
2022-11-23T01:40:57.570Z,7.82
2022-11-23T01:43:27.239Z,7.85
2022-11-23T01:45:59.198Z,7.93
2022-11-23T01:48:29.039Z,7.92
2022-11-23T01:50:58.767Z,7.94
2022-11-23T01:53:31.026Z,7.97
2022-11-23T01:56:03.169Z,8.06
2022-11-23T01:58:33.962Z,8.02
2022-11-23T02:01:03.447Z,8.01
2022-11-23T02:03:32.891Z,8.05
2022-11-23T02:06:04.889Z,8.05
2022-11-23T02:08:37.438Z,8.13
2022-11-23T02:11:06.978Z,8.16
2022-11-23T02:13:36.359Z,8.19
2022-11-23T02:16:05.825Z,8.19
2022-11-23T02:18:35.248Z,8.17
2022-11-23T02:21:06.668Z,8.21
2022-11-23T02:23:39.544Z,8.16
2022-11-23T02:26:12.844Z,8.18
2022-11-23T02:28:43.088Z,8.21
2022-11-23T02:31:12.520Z,8.25
2022-11-23T02:33:42.153Z,8.29
2022-11-23T02:36:26.331Z,8.27
2022-11-23T02:38:55.714Z,8.29
2022-11-23T02:41:27.683Z,8.32
2022-11-23T02:43:57.664Z,8.30
2022-11-23T02:46:28.547Z,8.29
2022-11-23T02:48:57.938Z,8.30
2022-11-23T02:51:29.545Z,8.30
2022-11-23T02:53:58.992Z,8.30
2022-11-23T02:56:31.651Z,8.28
2022-11-23T02:59:01.213Z,8.36
2022-11-23T03:01:31.426Z,8.30
2022-11-23T03:04:00.734Z,8.26
2022-11-23T03:06:31.674Z,8.21
2022-11-23T03:09:01.091Z,8.19
2022-11-23T03:11:33.064Z,8.27
2022-11-23T03:14:02.448Z,8.18
2022-11-23T03:16:34.183Z,8.14
2022-11-23T03:19:03.712Z,8.09
2022-11-23T03:21:34.845Z,8.06
2022-11-23T03:24:09.475Z,7.89
2022-11-23T03:26:42.648Z,7.90
2022-11-23T03:29:15.517Z,7.82
2022-11-23T03:31:45.774Z,7.76
2022-11-23T03:34:17.643Z,7.80
2022-11-23T03:36:47.804Z,7.72
2022-11-23T03:39:17.274Z,7.74
2022-11-23T03:42:12.383Z,7.72
2022-11-23T03:44:41.838Z,7.68
2022-11-23T03:47:12.060Z,7.63
2022-11-23T03:49:41.444Z,7.63
2022-11-23T03:52:12.275Z,7.62
2022-11-23T03:54:41.659Z,7.63
2022-11-23T03:57:13.591Z,7.66
2022-11-23T03:59:43.060Z,7.65
2022-11-23T04:02:13.086Z,7.68
2022-11-23T04:04:50.192Z,7.61
2022-11-23T04:07:45.226Z,7.63
2022-11-23T04:10:14.708Z,7.75
2022-11-23T04:13:11.841Z,7.68
2022-11-23T04:15:41.244Z,7.65
2022-11-23T04:18:12.910Z,7.75
2022-11-23T04:20:42.498Z,7.72
2022-11-23T04:23:13.711Z,7.68
2022-11-23T04:25:44.622Z,7.70
2022-11-23T04:28:17.096Z,7.71
2022-11-23T04:30:49.215Z,7.74
2022-11-23T04:33:18.754Z,7.71
2022-11-23T04:35:48.168Z,7.76
2022-11-23T04:38:17.834Z,7.84
2022-11-23T04:40:49.581Z,7.74
2022-11-23T04:43:21.707Z,7.67
2022-11-23T04:45:51.342Z,7.61
2022-11-23T04:48:27.341Z,7.61
2022-11-23T04:50:59.087Z,7.55
2022-11-23T04:53:34.914Z,7.57
2022-11-23T04:56:04.414Z,7.60
2022-11-23T04:58:41.149Z,7.56
2022-11-23T05:01:11.085Z,7.66
2022-11-23T05:03:56.588Z,7.72
2022-11-23T05:06:26.148Z,7.72
2022-11-23T05:08:56.759Z,7.64
2022-11-23T05:11:45.415Z,7.64
2022-11-23T05:14:17.646Z,7.65
2022-11-23T05:16:47.227Z,7.66
2022-11-23T05:19:17.596Z,7.64
2022-11-23T05:21:47.284Z,7.62
2022-11-23T05:24:17.951Z,7.58
2022-11-23T05:27:00.314Z,7.57
2022-11-23T05:29:33.429Z,7.58
2022-11-23T05:32:02.970Z,7.55
2022-11-23T05:34:32.368Z,7.54
2022-11-23T05:37:03.076Z,7.55
2022-11-23T05:39:32.763Z,7.52
2022-11-23T05:42:03.472Z,7.53
2022-11-23T05:44:40.825Z,7.52
2022-11-23T05:47:15.835Z,7.54
2022-11-23T05:49:45.296Z,7.54
2022-11-23T05:52:17.055Z,7.55
2022-11-23T05:54:47.347Z,7.54
2022-11-23T05:57:18.139Z,7.60
2022-11-23T05:59:50.924Z,7.62
2022-11-23T06:02:24.541Z,7.60
2022-11-23T06:04:58.706Z,7.58
2022-11-23T06:07:38.927Z,7.66
2022-11-23T06:10:15.259Z,7.54
2022-11-23T06:12:50.010Z,7.62
2022-11-23T06:15:23.654Z,7.60
2022-11-23T06:17:53.717Z,7.54
2022-11-23T06:20:24.621Z,7.52
2022-11-23T06:22:59.990Z,7.52
2022-11-23T06:25:30.757Z,7.54
2022-11-23T06:28:07.131Z,7.47
2022-11-23T06:30:45.666Z,7.39
2022-11-23T06:33:16.027Z,7.37
2022-11-23T06:35:54.728Z,7.33
2022-11-23T06:38:25.724Z,7.34
2022-11-23T06:41:03.729Z,7.33
2022-11-23T06:43:33.895Z,7.34
2022-11-23T06:46:08.673Z,7.32
2022-11-23T06:48:42.364Z,7.35
2022-11-23T06:51:11.756Z,7.32
2022-11-23T06:53:41.169Z,7.34
2022-11-23T06:56:13.399Z,7.34
2022-11-23T06:58:42.895Z,7.38
2022-11-23T07:01:20.546Z,7.35
2022-11-23T07:03:59.527Z,7.34
2022-11-23T07:06:37.281Z,7.40
2022-11-23T07:09:11.284Z,7.42
2022-11-23T07:12:00.123Z,7.45
2022-11-23T07:14:30.837Z,7.43
2022-11-23T07:17:05.849Z,7.46
2022-11-23T07:19:45.549Z,7.45
2022-11-23T07:22:17.508Z,7.51
2022-11-23T07:24:56.039Z,7.44
2022-11-23T07:27:25.702Z,7.42
2022-11-23T07:29:55.158Z,7.40
2022-11-23T07:32:29.951Z,7.40
2022-11-23T07:34:59.456Z,7.40
2022-11-23T07:37:30.747Z,7.41
2022-11-23T07:40:00.906Z,7.43
2022-11-23T07:42:38.188Z,7.46
2022-11-23T07:45:16.195Z,7.49
2022-11-23T07:47:53.556Z,7.42
2022-11-23T07:50:24.597Z,7.46
2022-11-23T07:52:56.949Z,7.46
2022-11-23T07:55:26.469Z,7.49
2022-11-23T07:57:58.254Z,7.51
2022-11-23T08:00:28.605Z,7.52
2022-11-23T08:03:27.354Z,7.59
2022-11-23T08:05:58.958Z,7.68
2022-11-23T08:08:30.684Z,7.69
2022-11-23T08:11:00.168Z,7.77
2022-11-23T08:13:29.510Z,7.82
2022-11-23T08:15:59.455Z,7.93
2022-11-23T08:18:31.603Z,7.98
2022-11-23T08:21:03.406Z,8.02
2022-11-23T08:23:34.888Z,8.13
2022-11-23T08:26:12.019Z,8.18
2022-11-23T08:28:43.083Z,8.22
2022-11-23T08:31:14.052Z,8.28
2022-11-23T08:33:46.060Z,8.24
2022-11-23T08:36:17.422Z,8.23
2022-11-23T08:38:46.788Z,8.25
2022-11-23T08:41:18.365Z,8.20
2022-11-23T08:43:47.952Z,8.15
2022-11-23T08:46:17.470Z,8.18
2022-11-23T08:48:49.418Z,8.16
2022-11-23T08:51:22.675Z,8.16
2022-11-23T08:53:52.032Z,8.10
2022-11-23T08:56:22.400Z,8.14
2022-11-23T08:58:51.843Z,8.12
2022-11-23T09:01:21.248Z,8.11
2022-11-23T09:03:54.658Z,8.16
2022-11-23T09:06:29.127Z,8.19
2022-11-23T09:08:58.801Z,8.29
2022-11-23T09:11:28.400Z,8.24
2022-11-23T09:13:58.483Z,8.29
2022-11-23T09:16:33.572Z,8.32
2022-11-23T09:19:07.246Z,8.37
2022-11-23T09:21:39.157Z,8.33
2022-11-23T09:24:10.835Z,8.41
2022-11-23T09:26:40.827Z,8.47
2022-11-23T09:29:12.966Z,8.57
2022-11-23T09:31:42.440Z,8.63
2022-11-23T09:34:19.827Z,8.61
2022-11-23T09:36:49.256Z,8.70
2022-11-23T09:39:18.624Z,8.72
2022-11-23T09:41:55.393Z,8.71
2022-11-23T09:44:32.728Z,8.83
2022-11-23T09:47:14.069Z,8.91
2022-11-23T09:49:47.678Z,8.91
2022-11-23T09:52:24.146Z,8.99
2022-11-23T09:54:54.219Z,8.94
2022-11-23T09:57:26.831Z,8.92
2022-11-23T09:59:57.366Z,8.95
2022-11-23T10:02:29.021Z,8.94
2022-11-23T10:05:01.429Z,8.99
2022-11-23T10:07:51.389Z,8.98
2022-11-23T10:10:29.471Z,9.00
2022-11-23T10:13:01.538Z,8.92
2022-11-23T10:15:31.494Z,9.00
2022-11-23T10:18:04.638Z,8.94
2022-11-23T10:20:55.939Z,8.97
2022-11-23T10:23:43.185Z,9.04
2022-11-23T10:26:19.141Z,9.08
2022-11-23T10:28:49.069Z,9.11
2022-11-23T10:31:19.645Z,9.14
2022-11-23T10:33:56.394Z,9.18
2022-11-23T10:36:26.007Z,9.19
2022-11-23T10:38:59.914Z,9.17
2022-11-23T10:41:29.391Z,9.29
2022-11-23T10:44:01.890Z,9.25
2022-11-23T10:46:32.530Z,9.31
2022-11-23T10:49:20.300Z,9.45
2022-11-23T10:51:53.371Z,9.33
2022-11-23T10:54:29.711Z,9.34
2022-11-23T10:56:59.663Z,9.42
2022-11-23T10:59:30.391Z,9.41
2022-11-23T11:02:03.878Z,9.48
2022-11-23T11:04:38.553Z,9.45
2022-11-23T11:07:29.095Z,9.56
2022-11-23T11:10:02.101Z,9.60
2022-11-23T11:12:33.869Z,9.71
2022-11-23T11:15:11.251Z,9.56
2022-11-23T11:17:43.090Z,9.41
2022-11-23T11:20:27.133Z,9.46
2022-11-23T11:22:56.487Z,9.42
2022-11-23T11:25:34.954Z,9.48
2022-11-23T11:28:04.801Z,9.61
2022-11-23T11:30:35.602Z,9.80
2022-11-23T11:33:14.522Z,9.79
2022-11-23T11:35:45.387Z,9.66
2022-11-23T11:38:16.005Z,9.83
2022-11-23T11:40:50.352Z,9.72
2022-11-23T11:43:25.347Z,9.82
2022-11-23T11:46:27.533Z,9.76
2022-11-23T11:48:49.356Z,9.87
2022-11-23T11:51:21.047Z,9.98
2022-11-23T11:53:51.981Z,9.85
2022-11-23T11:56:25.406Z,9.78
2022-11-23T11:58:57.440Z,9.61
2022-11-23T12:01:34.444Z,9.53
2022-11-23T12:04:04.736Z,9.45
2022-11-23T12:06:40.833Z,9.35
2022-11-23T12:09:13.001Z,9.31
2022-11-23T12:11:58.527Z,9.30
2022-11-23T12:14:27.887Z,9.36
2022-11-23T12:17:30.956Z,9.39
2022-11-23T12:19:51.399Z,9.52
2022-11-23T12:22:30.124Z,9.56
2022-11-23T12:25:03.977Z,9.58
2022-11-23T12:27:41.003Z,9.37
2022-11-23T12:30:26.805Z,9.37
2022-11-23T12:33:07.817Z,9.31
2022-11-23T12:35:49.021Z,9.47
2022-11-23T12:38:25.779Z,9.57
2022-11-23T12:41:04.706Z,9.60
2022-11-23T12:43:40.842Z,9.51
2022-11-23T12:46:15.336Z,9.55
2022-11-23T12:48:56.906Z,9.50
2022-11-23T12:51:31.140Z,9.56
2022-11-23T12:54:21.293Z,9.45
2022-11-23T12:56:59.203Z,9.56
2022-11-23T12:59:36.789Z,9.50
2022-11-23T13:02:07.932Z,9.37
2022-11-23T13:04:56.381Z,9.41
2022-11-23T13:07:49.081Z,9.49
2022-11-23T13:10:24.179Z,9.46
2022-11-23T13:13:01.016Z,9.57
2022-11-23T13:15:45.971Z,9.56
2022-11-23T13:18:16.780Z,9.75
2022-11-23T13:20:58.192Z,9.66
2022-11-23T13:23:27.601Z,9.71
2022-11-23T13:26:14.664Z,9.72
2022-11-23T13:28:45.713Z,9.80
2022-11-23T13:31:25.603Z,9.77
2022-11-23T13:33:55.730Z,9.77
2022-11-23T13:39:55.208Z,9.56
2022-11-23T13:42:24.633Z,9.57
2022-11-23T13:45:07.396Z,9.58
2022-11-23T13:47:48.204Z,9.56
2022-11-23T13:50:24.962Z,9.58
2022-11-23T13:52:54.338Z,9.40
2022-11-23T13:55:32.145Z,9.33
2022-11-23T13:58:20.999Z,9.40
2022-11-23T14:00:51.043Z,9.38
2022-11-23T14:03:35.463Z,9.45
2022-11-23T14:06:07.505Z,9.36
2022-11-23T14:08:36.955Z,9.30
2022-11-23T14:11:12.434Z,9.27
2022-11-23T14:13:41.848Z,9.17
2022-11-23T14:16:13.806Z,9.17
2022-11-23T14:18:52.626Z,9.15
2022-11-23T14:21:24.707Z,9.17
2022-11-23T14:24:15.752Z,9.13
2022-11-23T14:26:46.333Z,9.21
2022-11-23T14:29:20.727Z,9.19
2022-11-23T14:31:59.393Z,9.15
2022-11-23T14:34:35.718Z,9.11
2022-11-23T14:37:10.807Z,9.10
2022-11-23T14:39:55.320Z,9.05
2022-11-23T14:42:26.077Z,9.05
2022-11-23T14:45:01.413Z,8.98
2022-11-23T14:47:31.274Z,8.94
2022-11-23T14:50:02.156Z,8.92
2022-11-23T14:52:34.429Z,8.91
2022-11-23T14:55:04.820Z,8.86
2022-11-23T14:57:39.248Z,8.87
2022-11-23T15:00:30.387Z,8.84
2022-11-23T15:03:10.872Z,8.81
2022-11-23T15:05:51.395Z,8.85
2022-11-23T15:08:28.538Z,8.85
2022-11-23T15:11:00.432Z,8.87
2022-11-23T15:13:35.012Z,8.89
2022-11-23T15:16:13.391Z,8.89
2022-11-23T15:18:42.952Z,8.89
2022-11-23T15:21:26.609Z,8.88
2022-11-23T15:24:00.498Z,8.80
2022-11-23T15:29:35.423Z,8.91
2022-11-23T15:34:59.836Z,8.92
2022-11-23T15:37:29.224Z,8.94
2022-11-23T15:40:06.593Z,8.97
2022-11-23T15:42:36.010Z,8.98
2022-11-23T15:45:05.334Z,9.00
2022-11-23T15:47:34.748Z,8.95
2022-11-23T15:50:05.041Z,8.96
2022-11-23T15:52:35.999Z,8.93
2022-11-23T15:55:10.672Z,8.92
2022-11-23T15:57:40.342Z,8.84
2022-11-23T16:00:21.367Z,8.80
2022-11-23T16:03:17.271Z,8.72
2022-11-23T16:05:46.678Z,8.69
2022-11-23T16:08:25.584Z,8.57
2022-11-23T16:10:58.507Z,8.55
2022-11-23T16:13:37.646Z,8.46
2022-11-23T16:16:07.051Z,8.35
2022-11-23T16:18:38.114Z,8.34
2022-11-23T16:21:07.848Z,8.19
2022-11-23T16:23:39.960Z,8.16
2022-11-23T16:26:12.005Z,8.16
2022-11-23T16:28:53.290Z,8.03
2022-11-23T16:31:32.216Z,8.01
2022-11-23T16:34:09.046Z,7.84
2022-11-23T16:36:38.612Z,7.79
2022-11-23T16:39:09.617Z,7.77
2022-11-23T16:41:50.181Z,7.72
2022-11-23T16:44:35.200Z,7.68
2022-11-23T16:47:22.424Z,7.60
2022-11-23T16:49:54.947Z,7.53
2022-11-23T16:52:24.583Z,7.60
2022-11-23T16:54:55.500Z,7.54
2022-11-23T16:57:36.588Z,7.50
2022-11-23T17:00:07.414Z,7.50
2022-11-23T17:02:41.083Z,7.50
2022-11-23T17:05:15.842Z,7.49
2022-11-23T17:07:45.260Z,7.45
2022-11-23T17:10:16.116Z,7.35
2022-11-23T17:12:49.636Z,7.39
2022-11-23T17:15:19.034Z,7.38
2022-11-23T17:17:48.437Z,7.36
2022-11-23T17:20:18.164Z,7.44
2022-11-23T17:22:51.521Z,7.40
2022-11-23T17:25:20.968Z,7.40
2022-11-23T17:27:52.857Z,7.38
2022-11-23T17:30:23.495Z,7.38
2022-11-23T17:32:52.807Z,7.35
2022-11-23T17:35:22.116Z,7.35
2022-11-23T17:37:51.564Z,7.35
2022-11-23T17:40:21.625Z,7.37
2022-11-23T17:42:53.624Z,7.19
2022-11-23T17:45:22.995Z,7.21
2022-11-23T17:47:52.338Z,7.20
2022-11-23T17:50:21.835Z,7.20
2022-11-23T17:52:51.193Z,7.22
2022-11-23T17:55:20.622Z,7.21
2022-11-23T17:57:49.930Z,7.16
2022-11-23T18:00:22.978Z,7.15
2022-11-23T18:02:52.885Z,7.14
2022-11-23T18:05:22.465Z,7.10
2022-11-23T18:07:52.133Z,7.19
2022-11-23T18:10:21.713Z,7.16
2022-11-23T18:12:51.153Z,7.19
2022-11-23T18:15:23.147Z,7.23
2022-11-23T18:17:52.537Z,7.10
2022-11-23T18:20:22.212Z,7.08
2022-11-23T18:22:51.718Z,7.11
2022-11-23T18:25:21.035Z,7.09
2022-11-23T18:27:50.894Z,7.06
2022-11-23T18:30:22.879Z,6.99
2022-11-23T18:32:52.238Z,7.05
2022-11-23T18:35:21.718Z,7.03
2022-11-23T18:37:51.116Z,7.00
2022-11-23T18:40:20.822Z,6.96
2022-11-23T18:42:50.109Z,7.00
2022-11-23T18:45:19.479Z,7.02
2022-11-23T18:47:51.363Z,7.03
2022-11-23T18:50:20.775Z,7.09
2022-11-23T18:52:50.479Z,7.07
2022-11-23T18:55:20.290Z,7.06
2022-11-23T18:57:49.640Z,7.12
2022-11-23T19:00:20.084Z,7.11
2022-11-23T19:02:56.072Z,7.08
2022-11-23T19:05:25.805Z,7.06
2022-11-23T19:07:57.499Z,7.14
2022-11-23T19:10:26.894Z,7.15
2022-11-23T19:12:58.811Z,7.13
2022-11-23T19:15:30.762Z,7.19
2022-11-23T19:18:02.797Z,7.18
2022-11-23T19:20:32.329Z,7.16
2022-11-23T19:23:01.682Z,7.12
2022-11-23T19:25:30.971Z,7.11
2022-11-23T19:28:00.416Z,7.12
2022-11-23T19:30:30.093Z,7.15
2022-11-23T19:33:02.238Z,7.11
2022-11-23T19:35:31.669Z,7.11
2022-11-23T19:38:01.000Z,7.17
2022-11-23T19:40:30.352Z,7.12
2022-11-23T19:42:59.656Z,7.17
2022-11-23T19:45:29.162Z,7.20
2022-11-23T19:47:58.809Z,7.22
2022-11-23T19:50:30.928Z,7.27
2022-11-23T19:53:15.782Z,7.28
2022-11-23T19:55:45.138Z,7.28
2022-11-23T19:58:14.525Z,7.30
2022-11-23T20:00:45.672Z,7.32
2022-11-23T20:03:17.575Z,7.43
2022-11-23T20:05:58.990Z,7.45
2022-11-23T20:08:28.582Z,7.44
2022-11-23T20:10:58.129Z,7.52
2022-11-23T20:13:27.534Z,7.54
2022-11-23T20:15:56.905Z,7.55
2022-11-23T20:18:29.724Z,7.62
2022-11-23T20:21:02.143Z,7.62
2022-11-23T20:23:31.566Z,7.68
2022-11-23T20:26:01.008Z,7.66
2022-11-23T20:28:30.424Z,7.65
2022-11-23T20:30:59.733Z,7.68
2022-11-23T20:33:32.740Z,7.72
2022-11-23T20:36:12.629Z,7.78
2022-11-23T20:38:42.171Z,7.77
2022-11-23T20:41:15.420Z,7.81
2022-11-23T20:43:45.164Z,7.73
2022-11-23T20:46:22.385Z,7.72
2022-11-23T20:49:01.527Z,7.76
2022-11-23T20:51:33.491Z,7.79
2022-11-23T20:54:02.935Z,7.85
2022-11-23T20:56:32.437Z,7.85
2022-11-23T20:59:04.363Z,7.82
2022-11-23T21:01:34.593Z,7.78
2022-11-23T21:04:04.055Z,7.77
2022-11-23T21:06:39.437Z,7.79
2022-11-23T21:09:10.284Z,7.74
2022-11-23T21:11:52.113Z,7.78
2022-11-23T21:14:23.304Z,7.78
2022-11-23T21:16:55.164Z,7.68
2022-11-23T21:19:25.370Z,7.72
2022-11-23T21:21:57.447Z,7.71
2022-11-23T21:24:27.273Z,7.74
2022-11-23T21:26:56.542Z,7.72
2022-11-23T21:29:26.281Z,7.68
2022-11-23T21:31:56.456Z,7.76
2022-11-23T21:34:26.543Z,7.79
2022-11-23T21:36:59.158Z,7.78
2022-11-23T21:39:29.846Z,7.75
2022-11-23T21:41:59.374Z,7.77
2022-11-23T21:44:28.727Z,7.81
2022-11-23T21:47:00.141Z,7.80
2022-11-23T21:49:30.323Z,7.87
2022-11-23T21:52:02.340Z,7.84
2022-11-23T21:54:32.058Z,7.91
2022-11-23T21:57:01.566Z,7.89
2022-11-23T21:59:31.414Z,7.90
2022-11-23T22:02:00.924Z,7.96
2022-11-23T22:04:30.607Z,7.96
2022-11-23T22:07:02.697Z,7.96
2022-11-23T22:09:34.441Z,7.96
2022-11-23T22:12:04.019Z,7.94
2022-11-23T22:14:33.676Z,7.96
2022-11-23T22:17:04.189Z,8.03
2022-11-23T22:19:33.652Z,8.00
2022-11-23T22:22:07.389Z,7.99
2022-11-23T22:24:36.936Z,8.04
2022-11-23T22:27:06.491Z,8.03
2022-11-23T22:29:35.946Z,8.06
2022-11-23T22:32:05.893Z,8.04
2022-11-23T22:34:36.244Z,8.07
2022-11-23T22:37:10.722Z,8.12
2022-11-23T22:39:40.870Z,8.07
2022-11-23T22:42:10.287Z,8.11
2022-11-23T22:44:39.824Z,8.19
2022-11-23T22:47:09.257Z,8.20
2022-11-23T22:49:38.736Z,8.14
2022-11-23T22:52:10.940Z,8.20
2022-11-23T22:54:40.457Z,8.21
2022-11-23T22:57:09.877Z,8.28
2022-11-23T22:59:39.389Z,8.35
2022-11-23T23:02:08.912Z,8.35
2022-11-23T23:04:38.443Z,8.40
2022-11-23T23:07:07.959Z,8.30
2022-11-23T23:09:40.145Z,8.30
2022-11-23T23:12:09.823Z,8.29
2022-11-23T23:14:39.239Z,8.26
2022-11-23T23:17:08.686Z,8.25
2022-11-23T23:19:38.283Z,8.30
2022-11-23T23:22:08.658Z,8.25
2022-11-23T23:24:40.713Z,8.34
2022-11-23T23:27:10.903Z,8.35
2022-11-23T23:29:41.351Z,8.39
2022-11-23T23:32:10.826Z,8.41
2022-11-23T23:34:40.300Z,8.54
2022-11-23T23:37:09.829Z,8.59
2022-11-23T23:39:41.994Z,8.62
2022-11-23T23:42:11.555Z,8.72
2022-11-23T23:44:40.960Z,8.71
2022-11-23T23:47:10.690Z,8.70
2022-11-23T23:49:40.132Z,8.71
2022-11-23T23:52:09.667Z,8.62
2022-11-23T23:54:39.114Z,8.68
2022-11-23T23:57:11.636Z,8.67
2022-11-23T23:59:41.120Z,8.71
